Time;durP1;ratioP1;P1;durP2;ratioP2;P2;SDS_P1;SDS_P2;PMS_P1;PMS_P2;Temp;Humidity;BMP_temperature;BMP_pressure;BME280_temperature;BME280_humidity;BME280_pressure;Samples;Min_cycle;Max_cycle;Signal;HPM_P1;HPM_P2
2023/12/24 00:01:08;;;;;;;17.38;5.05;;;11.50;99.90;;;;;;5013016;28;20389;-79
2023/12/24 00:03:33;;;;;;;22.30;6.20;;;12.50;99.90;;;;;;5003820;28;20077;-77
2023/12/24 00:05:59;;;;;;;20.38;5.32;;;11.40;99.90;;;;;;4994667;28;20077;-77
2023/12/24 00:08:28;;;;;;;19.65;4.85;;;11.50;99.90;;;;;;4995962;28;20087;-77
2023/12/24 00:10:55;;;;;;;18.77;4.88;;;11.50;99.90;;;;;;5035764;28;20037;-78
2023/12/24 00:13:21;;;;;;;16.63;4.47;;;12.10;99.90;;;;;;5044814;28;20048;-77
2023/12/24 00:15:46;;;;;;;14.18;5.07;;;14.40;99.90;;;;;;5044182;28;20095;-77
2023/12/24 00:18:12;;;;;;;15.82;5.30;;;12.00;99.90;;;;;;5016930;28;20037;-77
2023/12/24 00:20:38;;;;;;;15.70;4.93;;;13.10;99.90;;;;;;5033993;28;20041;-77
2023/12/24 00:23:05;;;;;;;15.13;4.97;;;16.00;99.90;;;;;;5025139;28;20040;-79
2023/12/24 00:25:31;;;;;;;15.43;5.07;;;15.10;99.90;;;;;;5016920;28;20052;-79
2023/12/24 00:27:58;;;;;;;13.27;4.40;;;12.00;99.90;;;;;;5032609;28;20041;-78
2023/12/24 00:30:26;;;;;;;16.08;5.40;;;14.80;99.90;;;;;;5015798;28;20599;-81
2023/12/24 00:32:56;;;;;;;13.90;4.75;;;13.00;99.90;;;;;;5024761;28;20132;-81
2023/12/24 00:35:23;;;;;;;14.73;4.97;;;13.50;99.90;;;;;;5032643;28;20744;-75
2023/12/24 00:37:49;;;;;;;17.27;5.13;;;11.70;99.90;;;;;;5017084;28;20512;-77
2023/12/24 00:40:16;;;;;;;13.18;4.20;;;15.30;99.90;;;;;;5016261;28;20655;-79
2023/12/24 00:42:42;;;;;;;12.82;4.85;;;12.70;99.90;;;;;;5041186;28;20072;-77
2023/12/24 00:45:09;;;;;;;12.18;4.32;;;15.00;99.90;;;;;;5013569;28;20073;-76
2023/12/24 00:47:35;;;;;;;19.15;5.22;;;16.00;99.90;;;;;;5013042;28;20053;-76
2023/12/24 00:50:01;;;;;;;17.77;5.97;;;12.90;99.90;;;;;;5006934;28;20037;-79
2023/12/24 00:52:27;;;;;;;13.85;4.75;;;16.00;99.90;;;;;;5020400;28;20043;-79
2023/12/24 00:54:52;;;;;;;13.65;5.22;;;16.00;99.90;;;;;;5037079;28;20045;-77
2023/12/24 00:57:18;;;;;;;16.52;4.82;;;13.60;99.90;;;;;;4999951;28;20128;-79
2023/12/24 00:59:44;;;;;;;14.57;4.25;;;14.60;99.90;;;;;;5016587;28;20406;-78
2023/12/24 01:02:10;;;;;;;16.33;5.30;;;12.00;99.90;;;;;;5016179;28;20044;-77
2023/12/24 01:04:35;;;;;;;10.52;4.30;;;14.70;99.90;;;;;;5023521;28;20435;-77
2023/12/24 01:07:01;;;;;;;20.65;4.30;;;15.40;99.90;;;;;;4999909;28;20044;-79
2023/12/24 01:09:27;;;;;;;14.43;5.03;;;14.00;99.90;;;;;;5032736;28;20059;-77
2023/12/24 01:11:53;;;;;;;15.27;5.15;;;16.00;99.90;;;;;;5012606;28;20041;-80
2023/12/24 01:14:19;;;;;;;14.75;4.65;;;15.10;99.90;;;;;;5016468;28;20060;-78
2023/12/24 01:16:45;;;;;;;14.30;4.95;;;13.10;99.90;;;;;;5033080;28;20106;-80
2023/12/24 01:19:10;;;;;;;11.43;4.38;;;12.40;99.90;;;;;;5015856;28;20477;-79
2023/12/24 01:21:36;;;;;;;14.68;4.78;;;15.00;99.90;;;;;;5031683;28;20045;-79
2023/12/24 01:24:02;;;;;;;13.15;4.53;;;15.40;99.90;;;;;;5022489;28;20036;-79
2023/12/24 01:26:28;;;;;;;18.88;5.68;;;13.00;99.90;;;;;;5033555;28;20059;-79
2023/12/24 01:28:54;;;;;;;16.48;4.95;;;13.00;99.90;;;;;;5015665;28;20056;-76
2023/12/24 01:31:20;;;;;;;13.75;4.10;;;16.10;99.90;;;;;;5015301;28;20136;-76
2023/12/24 01:33:45;;;;;;;15.77;4.80;;;13.50;99.90;;;;;;5014509;28;20049;-78
2023/12/24 01:36:11;;;;;;;14.10;4.50;;;15.70;99.90;;;;;;5013045;28;20041;-79
2023/12/24 01:38:37;;;;;;;13.15;4.32;;;16.00;99.90;;;;;;5052091;28;20047;-77
2023/12/24 01:41:03;;;;;;;11.98;4.10;;;11.60;99.90;;;;;;5019041;28;20048;-79
2023/12/24 01:43:28;;;;;;;12.40;4.57;;;11.90;99.90;;;;;;5017201;28;20174;-79
2023/12/24 01:45:54;;;;;;;14.93;4.93;;;15.60;99.90;;;;;;5022014;28;20040;-81
2023/12/24 01:48:21;;;;;;;12.05;4.28;;;16.00;99.90;;;;;;5052216;28;20392;-79
2023/12/24 01:50:48;;;;;;;9.05;3.90;;;16.00;99.90;;;;;;5051923;28;20033;-75
2023/12/24 01:53:16;;;;;;;13.95;4.63;;;12.40;99.90;;;;;;5027354;28;20370;-78
2023/12/24 01:55:43;;;;;;;11.40;4.15;;;11.70;99.90;;;;;;5039608;28;20035;-80
2023/12/24 01:58:08;;;;;;;12.65;4.50;;;11.60;99.90;;;;;;5032472;28;20405;-74
2023/12/24 02:00:35;;;;;;;9.77;4.15;;;12.20;99.90;;;;;;4999215;28;20135;-77
2023/12/24 02:03:02;;;;;;;10.40;3.45;;;13.10;99.90;;;;;;5031911;28;20432;-78
2023/12/24 02:05:28;;;;;;;7.03;3.58;;;12.50;99.90;;;;;;5020686;28;20037;-77
2023/12/24 02:07:55;;;;;;;12.38;3.90;;;12.00;99.90;;;;;;5019204;28;20477;-78
2023/12/24 02:10:22;;;;;;;10.02;3.38;;;14.90;99.90;;;;;;5015007;28;20049;-79
2023/12/24 02:12:49;;;;;;;7.70;3.08;;;16.10;99.90;;;;;;5014980;28;20152;-79
2023/12/24 02:15:15;;;;;;;9.13;3.25;;;14.10;99.90;;;;;;5015123;28;20477;-78
2023/12/24 02:17:43;;;;;;;9.20;3.15;;;12.10;99.90;;;;;;5006462;28;20041;-79
2023/12/24 02:20:09;;;;;;;8.20;3.20;;;13.70;99.90;;;;;;5015626;28;20045;-79
2023/12/24 02:22:35;;;;;;;8.95;3.22;;;15.70;99.90;;;;;;5031493;28;20076;-79
2023/12/24 02:25:01;;;;;;;8.07;3.38;;;14.90;99.90;;;;;;5015274;28;20072;-79
2023/12/24 02:27:55;;;;;;;10.70;3.28;;;15.10;99.90;;;;;;5039206;28;20067;-80
2023/12/24 02:30:33;;;;;;;10.85;4.00;;;12.20;99.90;;;;;;5031814;28;20136;-77
2023/12/24 02:33:01;;;;;;;11.05;4.22;;;12.90;99.90;;;;;;5031710;28;20037;-80
2023/12/24 02:35:32;;;;;;;12.75;4.57;;;12.60;99.90;;;;;;5014912;28;20496;-80
2023/12/24 02:37:57;;;;;;;13.63;4.97;;;11.80;99.90;;;;;;5039913;28;20033;-81
2023/12/24 02:40:23;;;;;;;9.30;4.25;;;15.20;99.90;;;;;;5000192;28;20444;-77
2023/12/24 02:42:49;;;;;;;11.93;5.00;;;15.80;99.90;;;;;;5032066;28;20536;-78
2023/12/24 02:45:14;;;;;;;11.55;4.88;;;16.30;99.90;;;;;;5031780;28;20060;-77
2023/12/24 02:47:40;;;;;;;14.00;5.07;;;12.10;99.90;;;;;;5039046;28;20048;-82
2023/12/24 02:50:06;;;;;;;12.88;4.43;;;13.40;99.90;;;;;;5014995;28;20044;-80
2023/12/24 02:52:32;;;;;;;11.10;4.70;;;15.00;99.90;;;;;;5017393;28;20047;-80
2023/12/24 02:54:57;;;;;;;10.70;4.43;;;12.50;99.90;;;;;;5035091;28;20481;-78
2023/12/24 02:57:23;;;;;;;9.07;4.25;;;15.80;99.90;;;;;;5037151;28;20708;-78
2023/12/24 02:59:49;;;;;;;14.43;5.07;;;16.10;99.90;;;;;;5007623;28;20029;-81
2023/12/24 03:02:14;;;;;;;9.68;4.60;;;11.70;99.90;;;;;;5015220;28;20151;-79
2023/12/24 03:04:40;;;;;;;13.65;4.90;;;15.10;99.90;;;;;;4987095;28;20122;-77
2023/12/24 03:07:06;;;;;;;11.85;4.50;;;12.90;99.90;;;;;;5035162;28;20456;-81
2023/12/24 03:09:31;;;;;;;12.57;4.47;;;16.10;99.90;;;;;;5026126;28;20547;-79
2023/12/24 03:11:57;;;;;;;12.40;4.55;;;15.90;99.90;;;;;;5034777;28;20094;-76
2023/12/24 03:14:23;;;;;;;9.95;4.30;;;12.60;99.90;;;;;;5002241;28;20045;-79
2023/12/24 03:16:49;;;;;;;6.75;3.72;;;12.80;99.90;;;;;;5018389;28;20098;-79
2023/12/24 03:19:15;;;;;;;14.45;4.40;;;15.20;99.90;;;;;;5042275;28;20041;-79
2023/12/24 03:21:43;;;;;;;8.98;3.97;;;13.80;99.90;;;;;;5018118;28;20041;-78
2023/12/24 03:24:09;;;;;;;9.93;4.30;;;12.90;99.90;;;;;;5018112;28;20044;-83
2023/12/24 03:26:35;;;;;;;8.80;3.55;;;12.60;99.90;;;;;;5034481;28;20412;-78
2023/12/24 03:29:01;;;;;;;10.38;3.95;;;11.90;99.90;;;;;;5017438;28;20045;-80
2023/12/24 03:31:27;;;;;;;6.88;3.40;;;16.50;99.90;;;;;;5019928;28;20045;-80
2023/12/24 03:33:53;;;;;;;8.80;3.50;;;16.00;99.90;;;;;;5018039;28;20041;-77
2023/12/24 03:36:18;;;;;;;7.30;3.30;;;14.30;99.90;;;;;;5001085;28;20141;-82
2023/12/24 03:38:45;;;;;;;8.20;3.10;;;14.40;99.90;;;;;;5033079;28;20437;-79
2023/12/24 03:41:11;;;;;;;8.50;3.53;;;11.90;99.90;;;;;;5020309;28;20040;-80
2023/12/24 03:43:36;;;;;;;8.90;3.40;;;12.60;99.90;;;;;;5033886;28;20047;-81
2023/12/24 03:46:03;;;;;;;7.00;3.00;;;12.10;99.90;;;;;;5014217;28;20045;-81
2023/12/24 03:48:30;;;;;;;9.57;3.50;;;15.10;99.90;;;;;;4998484;28;20453;-76
2023/12/24 03:50:55;;;;;;;6.55;2.78;;;15.60;99.90;;;;;;5007215;28;20049;-78
2023/12/24 03:53:21;;;;;;;7.05;2.95;;;15.50;99.90;;;;;;5034189;28;20041;-81
2023/12/24 03:55:47;;;;;;;10.00;2.90;;;14.30;99.90;;;;;;5017388;28;20418;-80
2023/12/24 03:58:12;;;;;;;7.50;2.83;;;13.00;99.90;;;;;;5034175;28;20155;-82
2023/12/24 04:00:38;;;;;;;8.38;2.58;;;12.00;99.90;;;;;;5024372;28;20439;-83
2023/12/24 04:03:04;;;;;;;6.30;2.20;;;14.50;99.90;;;;;;5021697;28;20147;-81
2023/12/24 04:05:29;;;;;;;7.55;2.60;;;16.20;99.90;;;;;;5024096;28;20041;-79
2023/12/24 04:07:55;;;;;;;5.70;2.25;;;15.40;99.90;;;;;;5001194;28;20041;-81
2023/12/24 04:10:21;;;;;;;6.95;2.10;;;14.20;99.90;;;;;;5034769;28;20116;-81
2023/12/24 04:12:46;;;;;;;5.57;2.13;;;13.50;99.90;;;;;;4990981;28;20080;-81
2023/12/24 04:15:12;;;;;;;5.43;2.40;;;12.40;99.90;;;;;;5033769;28;20040;-81
2023/12/24 04:17:38;;;;;;;3.97;2.10;;;16.50;99.90;;;;;;5033406;28;20052;-83
2023/12/24 04:20:05;;;;;;;4.47;2.17;;;15.00;99.90;;;;;;5001194;28;20501;-77
2023/12/24 04:22:31;;;;;;;6.15;2.30;;;16.70;99.90;;;;;;5027917;28;20366;-80
2023/12/24 04:24:58;;;;;;;5.03;2.10;;;15.30;99.90;;;;;;5042017;28;20068;-81
2023/12/24 04:27:24;;;;;;;4.28;2.40;;;15.70;99.90;;;;;;5033112;28;20048;-77
2023/12/24 04:29:49;;;;;;;5.05;2.35;;;16.70;99.90;;;;;;5020357;28;20139;-79
2023/12/24 04:32:16;;;;;;;3.45;2.22;;;15.30;99.90;;;;;;5019755;28;20550;-80
2023/12/24 04:34:42;;;;;;;4.28;2.30;;;13.90;99.90;;;;;;5053085;28;20072;-81
2023/12/24 04:37:09;;;;;;;4.47;2.45;;;12.40;99.90;;;;;;5010500;28;20427;-79
2023/12/24 04:39:34;;;;;;;4.95;2.70;;;12.00;99.90;;;;;;5012986;28;20091;-81
2023/12/24 04:42:00;;;;;;;3.30;2.15;;;15.60;99.90;;;;;;4971058;28;20071;-79
2023/12/24 04:44:26;;;;;;;3.50;2.08;;;12.00;99.90;;;;;;5016877;28;20117;-76
2023/12/24 04:46:52;;;;;;;4.10;2.20;;;12.30;99.90;;;;;;5016388;28;20248;-78
2023/12/24 04:49:17;;;;;;;3.67;2.08;;;13.20;99.90;;;;;;5000281;28;20037;-80
2023/12/24 04:51:43;;;;;;;3.25;2.15;;;12.10;99.90;;;;;;5032774;28;20095;-78
2023/12/24 04:54:09;;;;;;;5.03;2.40;;;13.20;99.90;;;;;;5017618;28;20041;-76
2023/12/24 04:56:34;;;;;;;2.40;1.70;;;14.00;99.90;;;;;;5000584;28;20048;-81
2023/12/24 04:59:00;;;;;;;4.30;2.10;;;14.40;99.90;;;;;;5016190;28;20095;-78
2023/12/24 05:01:26;;;;;;;3.40;1.95;;;13.50;99.90;;;;;;5016541;28;20422;-78
2023/12/24 05:03:52;;;;;;;3.58;2.28;;;16.20;99.90;;;;;;5019263;28;20043;-79
2023/12/24 05:06:17;;;;;;;4.05;2.10;;;13.20;99.90;;;;;;5032711;28;20191;-80
2023/12/24 05:08:43;;;;;;;4.80;2.13;;;17.10;99.90;;;;;;5032616;28;20048;-81
2023/12/24 05:11:09;;;;;;;3.60;2.30;;;12.50;99.90;;;;;;4989240;28;20545;-78
2023/12/24 05:13:36;;;;;;;3.80;2.15;;;13.50;99.90;;;;;;5008053;28;20061;-79
2023/12/24 05:16:03;;;;;;;5.47;2.75;;;13.00;99.90;;;;;;5010445;28;20040;-77
2023/12/24 05:18:30;;;;;;;5.65;2.80;;;12.70;99.90;;;;;;5024391;28;20044;-80
2023/12/24 05:20:55;;;;;;;5.40;2.45;;;12.50;99.90;;;;;;5031768;28;20532;-79
2023/12/24 05:23:21;;;;;;;4.53;2.70;;;12.60;99.90;;;;;;5033469;28;20128;-78
2023/12/24 05:25:47;;;;;;;4.72;2.72;;;12.40;99.90;;;;;;5008025;28;20052;-76
2023/12/24 05:28:16;;;;;;;6.35;3.28;;;12.70;99.90;;;;;;5016039;28;20048;-78
2023/12/24 05:30:41;;;;;;;6.22;3.60;;;12.70;99.90;;;;;;5015794;28;20128;-77
2023/12/24 05:33:08;;;;;;;10.07;3.80;;;16.90;99.90;;;;;;5015380;28;20119;-78
2023/12/24 05:35:33;;;;;;;8.75;3.97;;;16.10;99.90;;;;;;5036847;28;20132;-78
2023/12/24 05:37:59;;;;;;;7.72;3.90;;;16.80;99.90;;;;;;5012378;28;20128;-80
2023/12/24 05:40:24;;;;;;;9.63;4.28;;;12.50;99.90;;;;;;4996399;28;20099;-77
2023/12/24 05:42:50;;;;;;;7.32;3.92;;;12.30;99.90;;;;;;5025752;28;20401;-78
2023/12/24 05:45:16;;;;;;;8.75;4.35;;;15.00;99.90;;;;;;5025809;28;20046;-80
2023/12/24 05:47:41;;;;;;;10.50;4.60;;;12.80;99.90;;;;;;5002692;28;20051;-81
2023/12/24 05:50:09;;;;;;;9.15;4.20;;;12.70;99.90;;;;;;5019100;28;20523;-80
2023/12/24 05:52:35;;;;;;;6.32;4.38;;;15.80;99.90;;;;;;5045236;28;20041;-78
2023/12/24 05:55:01;;;;;;;9.85;5.20;;;13.00;99.90;;;;;;5035853;28;20161;-78
2023/12/24 05:57:27;;;;;;;13.48;5.22;;;16.70;99.90;;;;;;5052330;28;20145;-79
2023/12/24 05:59:53;;;;;;;11.63;5.10;;;13.70;99.90;;;;;;5051563;28;20086;-79
2023/12/24 06:02:18;;;;;;;14.93;5.95;;;12.60;99.90;;;;;;5044661;28;20029;-78
2023/12/24 06:04:45;;;;;;;14.43;6.07;;;12.90;99.90;;;;;;5031787;28;20092;-82
2023/12/24 06:07:11;;;;;;;10.70;5.35;;;15.10;99.90;;;;;;5003914;28;20037;-79
2023/12/24 06:09:37;;;;;;;13.48;5.65;;;15.00;99.90;;;;;;5015670;28;20055;-77
2023/12/24 06:12:04;;;;;;;19.35;6.63;;;16.10;99.90;;;;;;5015173;28;20169;-82
2023/12/24 06:14:29;;;;;;;18.15;6.22;;;14.60;99.90;;;;;;5011964;28;20111;-79
2023/12/24 06:16:55;;;;;;;14.52;5.60;;;16.10;99.90;;;;;;5038308;28;20033;-82
2023/12/24 06:19:21;;;;;;;17.90;6.32;;;14.50;99.90;;;;;;5018792;28;20044;-82
2023/12/24 06:21:46;;;;;;;16.75;6.35;;;17.30;99.90;;;;;;5018569;28;20040;-78
2023/12/24 06:24:12;;;;;;;18.40;6.63;;;13.70;99.90;;;;;;5043931;28;20056;-84
2023/12/24 06:26:38;;;;;;;15.55;6.00;;;13.10;99.90;;;;;;5037298;28;20044;-83
2023/12/24 06:29:04;;;;;;;17.10;5.80;;;15.50;99.90;;;;;;5019661;28;20049;-81
2023/12/24 06:31:35;;;;;;;21.52;6.15;;;12.70;99.90;;;;;;5019768;28;20048;-84
2023/12/24 06:34:01;;;;;;;18.23;6.15;;;12.70;99.90;;;;;;5017636;28;20041;-77
2023/12/24 06:36:26;;;;;;;13.15;5.85;;;13.10;99.90;;;;;;5021094;28;20374;-83
2023/12/24 06:38:52;;;;;;;24.08;6.93;;;12.50;99.90;;;;;;5019407;28;20190;-76
2023/12/24 06:41:18;;;;;;;13.52;5.75;;;17.70;99.90;;;;;;5019050;28;20049;-77
2023/12/24 06:43:43;;;;;;;15.85;5.88;;;12.70;99.90;;;;;;5018625;28;20127;-79
2023/12/24 06:46:12;;;;;;;14.23;5.65;;;14.10;99.90;;;;;;5018439;28;20037;-84
2023/12/24 06:48:39;;;;;;;16.73;5.80;;;15.90;99.90;;;;;;5032102;28;20057;-81
2023/12/24 06:51:05;;;;;;;22.08;5.95;;;12.60;99.90;;;;;;5010155;28;20040;-81
2023/12/24 06:53:31;;;;;;;12.25;5.15;;;13.00;99.90;;;;;;5035516;28;20198;-78
2023/12/24 06:55:56;;;;;;;11.80;4.75;;;17.70;99.90;;;;;;5034574;28;20112;-80
2023/12/24 06:58:22;;;;;;;11.70;5.28;;;13.70;99.90;;;;;;5007167;28;20059;-78
2023/12/24 07:00:48;;;;;;;18.35;5.65;;;13.50;99.90;;;;;;5034157;28;20060;-80
2023/12/24 07:03:13;;;;;;;15.48;4.78;;;17.60;99.90;;;;;;5018666;28;20190;-82
2023/12/24 07:05:40;;;;;;;15.85;6.03;;;15.80;99.90;;;;;;5002209;28;20135;-82
2023/12/24 07:08:07;;;;;;;14.50;5.20;;;17.70;99.90;;;;;;5003195;28;20043;-79
2023/12/24 07:10:33;;;;;;;13.95;4.50;;;16.30;99.90;;;;;;5018793;28;20049;-80
2023/12/24 07:12:59;;;;;;;17.63;5.22;;;14.40;99.90;;;;;;5016439;28;20053;-84
2023/12/24 07:15:25;;;;;;;17.38;5.20;;;13.90;99.90;;;;;;5010036;28;20048;-80
2023/12/24 07:17:51;;;;;;;12.95;5.05;;;14.80;99.90;;;;;;4982797;28;20115;-81
2023/12/24 07:20:16;;;;;;;13.38;5.15;;;16.00;99.90;;;;;;4999503;28;20045;-83
2023/12/24 07:22:42;;;;;;;14.52;4.65;;;15.40;99.90;;;;;;4982460;28;20132;-81
2023/12/24 07:25:09;;;;;;;17.83;5.43;;;13.20;99.90;;;;;;4985164;28;20048;-82
2023/12/24 07:27:35;;;;;;;20.33;7.20;;;18.00;99.90;;;;;;5006908;28;20060;-79
2023/12/24 07:30:01;;;;;;;14.43;5.15;;;17.50;99.90;;;;;;5014287;28;20037;-80
2023/12/24 07:32:27;;;;;;;20.08;6.03;;;15.80;99.90;;;;;;5023342;28;20056;-79
2023/12/24 07:34:52;;;;;;;18.05;5.55;;;17.50;99.90;;;;;;5016188;28;20048;-77
2023/12/24 07:37:18;;;;;;;15.43;5.32;;;13.90;99.90;;;;;;5010275;28;20047;-82
2023/12/24 07:39:44;;;;;;;20.98;6.20;;;14.50;99.90;;;;;;5006290;28;20034;-81
2023/12/24 07:42:10;;;;;;;16.90;5.93;;;17.40;99.90;;;;;;5021576;28;20100;-82
2023/12/24 07:44:35;;;;;;;17.52;5.50;;;16.00;99.90;;;;;;5033431;28;20047;-79
2023/12/24 07:47:02;;;;;;;18.42;5.45;;;17.40;99.90;;;;;;5006210;28;20122;-81
2023/12/24 07:49:28;;;;;;;22.55;5.55;;;16.70;99.90;;;;;;5008944;28;20363;-79
2023/12/24 07:51:53;;;;;;;20.15;6.05;;;13.20;99.90;;;;;;4992605;28;20134;-79
2023/12/24 07:54:19;;;;;;;20.48;5.20;;;15.60;99.90;;;;;;5002066;28;20124;-81
2023/12/24 07:56:44;;;;;;;21.80;5.50;;;13.10;99.90;;;;;;5016801;28;20064;-83
2023/12/24 07:59:10;;;;;;;24.55;5.82;;;15.40;99.90;;;;;;5026198;28;20045;-85
2023/12/24 08:01:39;;;;;;;16.23;6.30;;;14.90;99.90;;;;;;4993018;28;20068;-79
2023/12/24 08:04:05;;;;;;;9.32;4.72;;;16.70;99.90;;;;;;5008498;28;20567;-76
2023/12/24 08:06:31;;;;;;;10.13;5.47;;;16.00;99.90;;;;;;5029567;28;20036;-80
2023/12/24 08:08:57;;;;;;;15.88;5.15;;;13.50;99.90;;;;;;5025121;28;20090;-77
2023/12/24 08:11:23;;;;;;;19.65;6.10;;;13.00;99.90;;;;;;5014080;28;20132;-78
2023/12/24 08:13:49;;;;;;;15.75;5.00;;;16.80;99.90;;;;;;5012210;28;20519;-79
2023/12/24 08:16:14;;;;;;;16.38;4.97;;;13.60;99.90;;;;;;5036802;28;20090;-80
2023/12/24 08:18:40;;;;;;;14.98;5.10;;;14.20;99.90;;;;;;5017560;28;20041;-78
2023/12/24 08:21:10;;;;;;;20.83;6.68;;;17.30;99.90;;;;;;5016583;28;20349;-77
2023/12/24 08:23:39;;;;;;;14.85;4.85;;;16.00;99.90;;;;;;5024282;28;20033;-79
2023/12/24 08:26:05;;;;;;;13.88;5.07;;;18.30;99.90;;;;;;5009335;28;20129;-79
2023/12/24 08:28:31;;;;;;;14.40;4.75;;;18.00;99.90;;;;;;5028896;28;20543;-76
2023/12/24 08:30:57;;;;;;;13.50;4.88;;;18.00;99.90;;;;;;5032612;28;20033;-80
2023/12/24 08:33:23;;;;;;;14.05;4.97;;;13.60;99.90;;;;;;4993869;28;20033;-80
2023/12/24 08:35:49;;;;;;;18.58;5.15;;;15.90;99.90;;;;;;5016340;28;20542;-76
2023/12/24 08:38:14;;;;;;;14.98;5.68;;;16.10;99.90;;;;;;5035680;28;20059;-81
2023/12/24 08:40:40;;;;;;;14.07;5.05;;;15.20;99.90;;;;;;5016172;28;20424;-76
2023/12/24 08:43:06;;;;;;;11.48;4.72;;;18.40;99.90;;;;;;5015551;28;20398;-81
2023/12/24 08:45:31;;;;;;;15.18;5.43;;;13.10;99.90;;;;;;5031908;28;20052;-78
2023/12/24 08:47:57;;;;;;;18.10;5.43;;;18.10;99.90;;;;;;5015509;28;20048;-77
2023/12/24 08:50:23;;;;;;;15.70;5.60;;;17.50;99.90;;;;;;5033175;28;20041;-78
2023/12/24 08:52:49;;;;;;;21.80;5.97;;;13.40;99.90;;;;;;5018841;28;20080;-77
2023/12/24 08:55:15;;;;;;;21.80;5.43;;;16.50;99.90;;;;;;5028537;28;20033;-80
2023/12/24 08:57:41;;;;;;;17.25;5.88;;;18.60;99.90;;;;;;5013581;28;20455;-78
2023/12/24 09:00:11;;;;;;;16.67;5.15;;;18.40;99.90;;;;;;5034766;28;20033;-80
2023/12/24 09:02:39;;;;;;;14.70;4.43;;;14.50;99.90;;;;;;5033190;28;20041;-79
2023/12/24 09:05:09;;;;;;;21.77;5.28;;;13.80;99.90;;;;;;5014799;28;20033;-80
2023/12/24 09:07:35;;;;;;;16.40;5.43;;;16.70;99.90;;;;;;5032151;28;20041;-80
2023/12/24 09:10:02;;;;;;;12.50;4.40;;;13.80;99.90;;;;;;5006324;28;20075;-79
2023/12/24 09:12:30;;;;;;;19.10;5.07;;;15.80;99.90;;;;;;5014653;28;20170;-78
2023/12/24 09:14:55;;;;;;;13.82;4.53;;;15.40;99.90;;;;;;4995016;28;20044;-81
2023/12/24 09:17:21;;;;;;;19.80;4.78;;;15.40;99.90;;;;;;4995722;28;20030;-77
2023/12/24 09:19:47;;;;;;;18.38;4.57;;;13.50;99.90;;;;;;5012083;28;20076;-79
2023/12/24 09:22:14;;;;;;;11.48;4.20;;;14.40;99.90;;;;;;4979141;28;20124;-84
2023/12/24 09:24:40;;;;;;;14.48;4.60;;;16.40;99.90;;;;;;4993358;28;20038;-85
2023/12/24 09:27:06;;;;;;;16.25;4.65;;;18.40;99.90;;;;;;4994620;28;20489;-84
2023/12/24 09:29:32;;;;;;;18.38;4.30;;;13.80;99.90;;;;;;4995365;28;20042;-83
2023/12/24 09:31:58;;;;;;;16.88;4.10;;;17.70;99.90;;;;;;4978109;28;20045;-83
2023/12/24 09:34:24;;;;;;;18.38;4.80;;;13.90;99.90;;;;;;4994073;28;20041;-82
2023/12/24 09:36:50;;;;;;;19.25;4.47;;;18.60;99.90;;;;;;4974251;28;20116;-83
2023/12/24 09:39:16;;;;;;;15.60;4.70;;;17.10;99.90;;;;;;4994006;28;20041;-82
2023/12/24 09:41:41;;;;;;;18.33;3.85;;;17.20;99.90;;;;;;4994619;28;20041;-82
2023/12/24 09:44:08;;;;;;;18.65;6.55;;;14.70;99.90;;;;;;4970407;28;20044;-82
2023/12/24 09:46:34;;;;;;;17.08;4.85;;;15.20;99.90;;;;;;4971130;28;20059;-82
2023/12/24 09:49:00;;;;;;;15.70;4.80;;;14.20;99.90;;;;;;4972638;28;20046;-81
2023/12/24 09:51:26;;;;;;;13.88;4.07;;;16.10;99.90;;;;;;5009442;28;20583;-81
2023/12/24 09:53:54;;;;;;;11.10;3.75;;;17.10;99.90;;;;;;5009638;28;20041;-82
2023/12/24 09:56:19;;;;;;;13.90;3.97;;;17.50;99.90;;;;;;4996298;28;20029;-82
2023/12/24 09:58:46;;;;;;;14.77;4.03;;;14.20;99.90;;;;;;5010629;28;20091;-83
2023/12/24 10:01:13;;;;;;;13.35;3.50;;;19.20;99.90;;;;;;5029460;28;20045;-82
2023/12/24 10:03:45;;;;;;;20.48;4.30;;;13.40;99.90;;;;;;5011319;28;20422;-80
2023/12/24 10:06:10;;;;;;;18.48;4.35;;;13.90;99.90;;;;;;4974776;28;20042;-81
2023/12/24 10:08:37;;;;;;;17.73;3.97;;;17.40;99.90;;;;;;5010874;28;20033;-82
2023/12/24 10:11:23;;;;;;;9.80;4.03;;;16.50;99.90;;;;;;4993521;28;20753;-82
2023/12/24 10:14:07;;;;;;;11.23;3.58;;;15.30;99.90;;;;;;4995235;28;20190;-82
2023/12/24 10:16:43;;;;;;;13.23;4.00;;;14.50;99.90;;;;;;5019770;28;20385;-83
2023/12/24 10:19:10;;;;;;;16.65;3.70;;;16.70;99.90;;;;;;5022921;28;20028;-83
2023/12/24 10:21:35;;;;;;;17.40;4.38;;;17.20;99.90;;;;;;5005346;28;20040;-82
2023/12/24 10:24:05;;;;;;;12.80;3.90;;;13.50;99.90;;;;;;5005271;28;20047;-83
2023/12/24 10:26:31;;;;;;;12.52;3.53;;;17.60;99.90;;;;;;5004714;28;20048;-81
2023/12/24 10:28:57;;;;;;;16.40;4.25;;;18.10;99.90;;;;;;5007439;28;20048;-83
2023/12/24 10:31:23;;;;;;;14.13;3.28;;;14.00;99.90;;;;;;5023551;28;20136;-83
2023/12/24 10:33:58;;;;;;;23.38;4.57;;;17.40;99.90;;;;;;5040057;28;20037;-82
2023/12/24 10:36:24;;;;;;;15.45;4.40;;;14.80;99.90;;;;;;5005355;28;20393;-81
2023/12/24 10:38:50;;;;;;;15.02;3.65;;;13.50;99.90;;;;;;5020776;28;20041;-77
2023/12/24 10:41:15;;;;;;;13.15;3.70;;;13.60;99.90;;;;;;5034470;28;20055;-82
2023/12/24 10:43:41;;;;;;;14.50;3.40;;;15.20;99.90;;;;;;5020224;28;20404;-79
2023/12/24 10:46:07;;;;;;;13.75;3.58;;;15.80;99.90;;;;;;5036402;28;20558;-79
2023/12/24 10:48:32;;;;;;;7.82;2.90;;;18.10;99.90;;;;;;5020095;28;20068;-78
2023/12/24 10:50:58;;;;;;;12.98;3.10;;;19.50;99.90;;;;;;5021746;28;20036;-81
2023/12/24 10:53:24;;;;;;;10.65;3.33;;;13.70;99.90;;;;;;4999642;28;20560;-80
2023/12/24 10:56:14;;;;;;;11.02;3.20;;;16.90;99.90;;;;;;5003489;28;20123;-78
2023/12/24 10:59:00;;;;;;;12.52;3.67;;;17.80;99.90;;;;;;5034899;28;20041;-79
2023/12/24 11:01:26;;;;;;;11.82;3.40;;;16.40;99.90;;;;;;5014382;28;20125;-77
2023/12/24 11:03:53;;;;;;;9.52;2.85;;;13.90;99.90;;;;;;5019344;28;20541;-80
2023/12/24 11:06:55;;;;;;;11.25;3.38;;;16.70;99.90;;;;;;5022475;28;20106;-78
2023/12/24 11:09:21;;;;;;;15.73;2.90;;;13.60;99.90;;;;;;5034075;28;20071;-81
2023/12/24 11:11:54;;;;;;;11.95;3.70;;;18.10;99.90;;;;;;5017040;28;20037;-80
2023/12/24 11:14:39;;;;;;;9.73;2.53;;;17.80;99.90;;;;;;5023193;28;20059;-79
2023/12/24 11:17:06;;;;;;;10.75;2.95;;;16.70;99.90;;;;;;5042756;28;20052;-77
2023/12/24 11:19:35;;;;;;;15.10;3.15;;;19.20;99.90;;;;;;5022253;28;20032;-77
2023/12/24 11:22:09;;;;;;;14.90;3.13;;;17.40;99.90;;;;;;5008898;28;20045;-76
2023/12/24 11:24:42;;;;;;;10.65;2.53;;;19.40;99.90;;;;;;5021192;28;20044;-78
2023/12/24 11:27:11;;;;;;;10.52;2.78;;;13.90;99.90;;;;;;5036820;28;20039;-82
2023/12/24 11:29:47;;;;;;;9.60;2.63;;;16.70;99.90;;;;;;5008979;28;20040;-78
2023/12/24 11:32:30;;;;;;;12.00;2.83;;;19.80;99.90;;;;;;5024995;28;20056;-80
2023/12/24 11:34:58;;;;;;;11.57;2.88;;;19.70;99.90;;;;;;5039603;28;20060;-78
2023/12/24 11:37:34;;;;;;;9.98;2.90;;;14.70;99.90;;;;;;5026608;28;20063;-77
2023/12/24 11:40:12;;;;;;;11.55;2.90;;;16.50;99.90;;;;;;5022688;28;20033;-78
2023/12/24 11:42:45;;;;;;;12.10;3.10;;;14.00;99.90;;;;;;5032985;28;20112;-77
2023/12/24 11:45:29;;;;;;;13.20;2.95;;;17.80;99.90;;;;;;5032760;28;20630;-77
2023/12/24 11:47:55;;;;;;;11.23;2.75;;;14.40;99.90;;;;;;5016108;28;20088;-80
2023/12/24 11:50:22;;;;;;;14.50;3.53;;;14.00;99.90;;;;;;5032516;28;20060;-77
2023/12/24 11:52:49;;;;;;;12.48;3.40;;;14.30;99.90;;;;;;4999892;28;20092;-76
2023/12/24 11:55:18;;;;;;;13.25;3.28;;;14.50;99.90;;;;;;5016161;28;20041;-78
2023/12/24 11:57:45;;;;;;;11.27;3.28;;;14.90;99.90;;;;;;5016518;28;20045;-81
2023/12/24 12:00:13;;;;;;;10.25;3.47;;;15.40;99.90;;;;;;4999561;28;20064;-78
2023/12/24 12:02:41;;;;;;;15.18;3.35;;;15.40;99.90;;;;;;5021719;28;20036;-79
2023/12/24 12:05:08;;;;;;;10.85;3.35;;;16.70;99.90;;;;;;5018194;28;20076;-77
2023/12/24 12:07:35;;;;;;;15.10;3.60;;;19.70;99.90;;;;;;5016041;28;20037;-76
2023/12/24 12:10:00;;;;;;;10.20;3.00;;;15.20;99.90;;;;;;5032298;28;20039;-80
2023/12/24 12:12:26;;;;;;;19.08;3.88;;;15.40;99.90;;;;;;5018392;28;20037;-78
2023/12/24 12:14:52;;;;;;;10.98;3.42;;;18.20;99.90;;;;;;5000184;28;20050;-81
2023/12/24 12:17:17;;;;;;;11.93;3.28;;;19.90;99.90;;;;;;5042063;28;20112;-80
2023/12/24 12:19:43;;;;;;;11.55;2.90;;;14.10;99.90;;;;;;5032459;28;20067;-79
2023/12/24 12:22:09;;;;;;;10.93;2.78;;;16.00;99.90;;;;;;5021280;28;20040;-79
2023/12/24 12:24:34;;;;;;;10.63;3.45;;;17.60;99.90;;;;;;5020802;28;20040;-78
2023/12/24 12:27:00;;;;;;;12.30;2.83;;;18.30;99.90;;;;;;5017218;28;20046;-77
2023/12/24 12:29:26;;;;;;;11.48;2.90;;;16.70;99.90;;;;;;5020917;28;20119;-78
2023/12/24 12:31:57;;;;;;;12.60;3.50;;;14.60;99.90;;;;;;5006883;28;20388;-77
2023/12/24 12:34:23;;;;;;;14.88;3.90;;;17.40;99.90;;;;;;5022260;28;20392;-76
2023/12/24 12:36:49;;;;;;;12.60;3.42;;;16.90;99.90;;;;;;5016619;28;20044;-79
2023/12/24 12:39:14;;;;;;;11.40;2.95;;;16.00;99.90;;;;;;5022585;28;20466;-82